Time,TemperatureF,DewpointF,PressureIn,WindDirection,WindDirectionDegrees,WindSpeedMPH,WindSpeedGustMPH,Humidity,HourlyPrecipIn,Conditions,Clouds,dailyrainin,SoftwareType,DateUTC
2013-02-10 01:11:00,14.0,-1.0,-100.00,NW,315,12.0,17.0,51,-99.99,,,-99.99,,2013-02-10 06:11:00,
2013-02-10 01:21:00,14.0,-1.0,-100.00,NW,325,13.0,17.0,50,-99.99,,,-99.99,,2013-02-10 06:21:00,
2013-02-10 01:32:00,14.0,-1.0,-100.00,NNW,335,9.0,15.0,50,-99.99,,,-99.99,,2013-02-10 06:32:00,
2013-02-10 01:42:00,15.0,-1.0,-100.00,NW,325,13.0,18.0,49,-99.99,,,-99.99,,2013-02-10 06:42:00,
2013-02-10 01:51:00,15.0,-1.0,-100.00,NNW,335,9.0,15.0,49,-99.99,,,-99.99,,2013-02-10 06:51:00,
2013-02-10 02:01:00,15.0,-1.0,-100.00,NW,325,7.0,16.0,49,-99.99,,,-99.99,,2013-02-10 07:01:00,
2013-02-10 02:11:00,15.0,-1.0,-100.00,NW,320,10.0,20.0,48,-99.99,,,-99.99,,2013-02-10 07:11:00,
2013-02-10 02:21:00,15.0,-1.0,-100.00,NW,325,7.0,20.0,49,-99.99,,,-99.99,,2013-02-10 07:21:00,
2013-02-10 02:32:00,15.0,-1.0,-100.00,NW,320,7.0,17.0,48,-99.99,,,-99.99,,2013-02-10 07:32:00,
2013-02-10 02:42:00,15.0,-1.0,-100.00,NW,320,7.0,17.0,48,-99.99,,,-99.99,,2013-02-10 07:42:00,
2013-02-10 02:51:00,15.0,-1.0,-100.00,NW,325,7.0,15.0,49,-99.99,,,-99.99,,2013-02-10 07:51:00,
2013-02-10 03:32:00,13.0,-2.0,-100.00,NW,325,8.0,12.0,51,-99.99,,,-99.99,,2013-02-10 08:32:00,
2013-02-10 09:22:00,17.0,-3.0,-100.00,WNW,290,6.0,9.0,41,-99.99,,,-99.99,,2013-02-10 14:22:00,
2013-02-10 09:32:00,17.0,-3.0,-100.00,WNW,290,6.0,9.0,41,-99.99,,,-99.99,,2013-02-10 14:32:00,
2013-02-10 10:02:00,21.0,-2.0,-100.00,WNW,295,6.0,8.0,36,-99.99,,,-99.99,,2013-02-10 15:02:00,
2013-02-10 11:30:00,33.0,0.0,-100.00,NW,315,6.0,10.0,24,-99.99,,,-99.99,,2013-02-10 16:30:00,
2013-02-10 12:12:00,33.0,0.0,-100.00,NW,315,6.0,10.0,24,-99.99,,,-99.99,,2013-02-10 17:12:00,
2013-02-10 12:22:00,33.0,0.0,-100.00,NW,315,6.0,10.0,24,-99.99,,,-99.99,,2013-02-10 17:22:00,
2013-02-10 12:42:00,35.0,2.0,-100.00,NNE,15,3.0,8.0,24,-99.99,,,-99.99,,2013-02-10 17:42:00,
2013-02-10 12:53:00,33.0,1.0,-100.00,NNW,340,5.0,14.0,25,-99.99,,,-99.99,,2013-02-10 17:53:00,
2013-02-10 13:02:00,34.0,0.0,-100.00,North,0,6.0,13.0,23,-99.99,,,-99.99,,2013-02-10 18:02:00,
2013-02-10 13:12:00,34.0,0.0,-100.00,NW,325,5.0,12.0,23,-99.99,,,-99.99,,2013-02-10 18:12:00,
2013-02-10 13:22:00,35.0,0.0,-100.00,North,355,5.0,14.0,22,-99.99,,,-99.99,,2013-02-10 18:22:00,
2013-02-10 13:32:00,34.0,-1.0,-100.00,WNW,295,6.0,13.0,22,-99.99,,,-99.99,,2013-02-10 18:32:00,
2013-02-10 13:42:00,36.0,2.0,-100.00,NW,315,5.0,13.0,24,-99.99,,,-99.99,,2013-02-10 18:42:00,
2013-02-10 13:52:00,36.0,2.0,-100.00,NW,315,5.0,13.0,24,-99.99,,,-99.99,,2013-02-10 18:52:00,
2013-02-10 14:02:00,37.0,1.0,-100.00,North,350,3.0,12.0,21,-99.99,,,-99.99,,2013-02-10 19:02:00,
2013-02-10 14:12:00,36.0,0.0,-100.00,NNW,335,6.0,9.0,21,-99.99,,,-99.99,,2013-02-10 19:12:00,
2013-02-10 14:22:00,36.0,0.0,-100.00,NNW,330,7.0,12.0,21,-99.99,,,-99.99,,2013-02-10 19:22:00,
2013-02-10 14:32:00,36.0,1.0,-100.00,SW,230,2.0,9.0,22,-99.99,,,-99.99,,2013-02-10 19:32:00,
2013-02-10 14:43:00,37.0,1.0,-100.00,NNW,335,2.0,8.0,21,-99.99,,,-99.99,,2013-02-10 19:43:00,
2013-02-10 14:52:00,37.0,1.0,-100.00,WNW,285,5.0,8.0,21,-99.99,,,-99.99,,2013-02-10 19:52:00,
2013-02-10 15:02:00,37.0,-1.0,-100.00,WNW,290,7.0,9.0,20,-99.99,,,-99.99,,2013-02-10 20:02:00,
2013-02-10 15:11:00,37.0,-1.0,-100.00,NW,315,3.0,9.0,19,-99.99,,,-99.99,,2013-02-10 20:11:00,
2013-02-10 15:22:00,37.0,0.0,-100.00,WNW,300,8.0,10.0,20,-99.99,,,-99.99,,2013-02-10 20:22:00,
2013-02-10 15:32:00,37.0,-1.0,-100.00,WNW,285,7.0,10.0,19,-99.99,,,-99.99,,2013-02-10 20:32:00,
2013-02-10 15:42:00,37.0,1.0,-100.00,SW,225,2.0,9.0,21,-99.99,,,-99.99,,2013-02-10 20:42:00,
2013-02-10 15:52:00,37.0,3.0,-100.00,West,265,5.0,10.0,23,-99.99,,,-99.99,,2013-02-10 20:52:00,
2013-02-10 16:02:00,36.0,4.0,-100.00,WNW,285,5.0,9.0,25,-99.99,,,-99.99,,2013-02-10 21:02:00,
2013-02-10 16:12:00,36.0,4.0,-100.00,WNW,290,3.0,8.0,26,-99.99,,,-99.99,,2013-02-10 21:12:00,
2013-02-10 16:22:00,36.0,3.0,-100.00,WNW,290,7.0,12.0,24,-99.99,,,-99.99,,2013-02-10 21:22:00,
2013-02-10 16:32:00,36.0,2.0,-100.00,WNW,285,6.0,10.0,23,-99.99,,,-99.99,,2013-02-10 21:32:00,
2013-02-10 16:42:00,36.0,2.0,-100.00,WNW,290,7.0,12.0,23,-99.99,,,-99.99,,2013-02-10 21:42:00,
2013-02-10 21:01:00,26.0,0.0,-100.00,SW,235,1.0,2.0,32,-99.99,,,-99.99,,2013-02-11 02:01:00,